createdAt,value
2019-05-01T00:01:29.515Z,99.90
2019-05-01T00:03:59.649Z,99.30
2019-05-01T00:06:29.811Z,99.30
2019-05-01T00:08:58.397Z,99.50
2019-05-01T00:11:28.302Z,99.40
2019-05-01T00:13:56.752Z,99.40
2019-05-01T00:16:25.271Z,99.40
2019-05-01T00:18:53.744Z,99.30
2019-05-01T00:21:22.208Z,99.40
2019-05-01T00:23:50.708Z,99.30
2019-05-01T00:26:19.279Z,99.40
2019-05-01T00:28:47.799Z,99.40
2019-05-01T00:31:16.652Z,99.40
2019-05-01T00:33:45.150Z,99.50
2019-05-01T00:36:13.760Z,99.60
2019-05-01T00:38:42.200Z,99.80
2019-05-01T00:41:10.664Z,99.90
2019-05-01T00:43:39.172Z,99.90
2019-05-01T00:46:07.615Z,99.90
2019-05-01T00:48:36.084Z,99.90
2019-05-01T00:51:04.660Z,99.90
2019-05-01T00:53:33.104Z,99.90
2019-05-01T00:56:03.225Z,99.90
2019-05-01T00:58:49.518Z,99.90
2019-05-01T01:01:36.182Z,99.90
2019-05-01T01:04:05.125Z,99.90
2019-05-01T01:06:33.572Z,99.90
2019-05-01T01:09:02.147Z,99.90
2019-05-01T01:11:30.656Z,99.90
2019-05-01T01:13:59.404Z,99.90
2019-05-01T01:16:27.892Z,99.90
2019-05-01T01:18:56.337Z,99.90
2019-05-01T01:21:25.021Z,99.90
2019-05-01T01:23:53.581Z,99.90
2019-05-01T01:26:22.081Z,99.90
2019-05-01T01:28:50.590Z,99.90
2019-05-01T01:31:19.077Z,99.90
2019-05-01T01:33:47.589Z,99.90
2019-05-01T01:36:16.045Z,99.90
2019-05-01T01:38:44.600Z,99.90
2019-05-01T01:41:13.185Z,99.90
2019-05-01T01:43:58.785Z,99.90
2019-05-01T01:46:28.942Z,99.90
2019-05-01T01:48:58.420Z,99.90
2019-05-01T01:51:26.969Z,99.90
2019-05-01T01:53:56.843Z,99.90
2019-05-01T01:56:25.631Z,99.90
2019-05-01T01:58:54.545Z,99.90
2019-05-01T02:01:31.031Z,99.90
2019-05-01T02:04:04.415Z,99.90
2019-05-01T02:06:33.003Z,99.90
2019-05-01T02:09:01.581Z,99.90
2019-05-01T02:11:30.119Z,99.90
2019-05-01T02:13:58.704Z,99.90
2019-05-01T02:16:27.644Z,99.90
2019-05-01T02:18:56.183Z,99.90
2019-05-01T02:21:24.700Z,99.90
2019-05-01T02:23:53.210Z,99.90
2019-05-01T02:26:23.789Z,99.90
2019-05-01T02:28:54.454Z,99.90
2019-05-01T02:31:32.292Z,99.90
2019-05-01T02:34:03.151Z,99.90
2019-05-01T02:36:32.506Z,99.90
2019-05-01T02:39:02.189Z,99.90
2019-05-01T02:41:31.466Z,99.90
2019-05-01T02:44:02.985Z,99.90
2019-05-01T02:46:34.261Z,99.90
2019-05-01T02:49:08.791Z,99.90
2019-05-01T02:51:40.402Z,99.90
2019-05-01T02:54:10.394Z,99.90
2019-05-01T02:56:42.424Z,99.90
2019-05-01T02:59:12.006Z,99.90
2019-05-01T03:01:47.132Z,99.90
2019-05-01T03:04:11.893Z,99.90
2019-05-01T03:06:40.877Z,99.90
2019-05-01T03:09:09.468Z,99.90
2019-05-01T03:11:40.122Z,99.90
2019-05-01T03:14:11.677Z,99.90
2019-05-01T03:16:41.328Z,99.90
2019-05-01T03:19:15.562Z,99.50
2019-05-01T03:21:55.264Z,99.50
2019-05-01T03:24:24.673Z,99.70
2019-05-01T03:26:54.025Z,99.70
2019-05-01T03:29:23.101Z,99.70
2019-05-01T03:32:14.342Z,99.80
2019-05-01T03:34:22.237Z,99.60
2019-05-01T03:36:50.772Z,99.90
2019-05-01T03:39:19.372Z,99.60
2019-05-01T03:41:48.160Z,99.70
2019-05-01T03:44:17.427Z,99.20
2019-05-01T03:46:46.530Z,98.90
2019-05-01T03:49:15.304Z,98.50
2019-05-01T03:51:44.501Z,98.90
2019-05-01T03:54:13.522Z,99.00
2019-05-01T03:56:42.515Z,98.40
2019-05-01T03:59:11.099Z,98.70
2019-05-01T04:01:41.723Z,98.80
2019-05-01T04:04:12.095Z,98.90
2019-05-01T04:06:41.040Z,99.00
2019-05-01T04:09:09.506Z,98.40
2019-05-01T04:11:38.023Z,98.50
2019-05-01T04:14:06.611Z,98.60
2019-05-01T04:16:35.593Z,98.60
2019-05-01T04:19:05.117Z,98.90
2019-05-01T04:21:35.284Z,99.10
2019-05-01T04:24:04.000Z,99.10
2019-05-01T04:26:32.609Z,99.20
2019-05-01T04:29:02.759Z,99.50
2019-05-01T04:31:33.379Z,99.40
2019-05-01T04:34:03.903Z,99.70
2019-05-01T04:36:37.654Z,99.50
2019-05-01T04:39:09.016Z,99.30
2019-05-01T04:41:37.702Z,99.40
2019-05-01T04:44:06.315Z,99.60
2019-05-01T04:46:35.696Z,99.90
2019-05-01T04:49:04.362Z,99.10
2019-05-01T04:51:33.172Z,99.20
2019-05-01T04:54:01.875Z,98.70
2019-05-01T04:56:30.647Z,99.10
2019-05-01T04:58:59.889Z,98.60
2019-05-01T05:01:30.115Z,98.60
2019-05-01T05:03:59.338Z,99.00
2019-05-01T05:06:28.137Z,98.50
2019-05-01T05:08:57.309Z,98.40
2019-05-01T05:11:27.540Z,98.40
2019-05-01T05:14:15.858Z,98.80
2019-05-01T05:16:51.969Z,97.90
2019-05-01T05:19:20.957Z,98.00
2019-05-01T05:21:49.847Z,97.50
2019-05-01T05:24:18.425Z,97.60
2019-05-01T05:26:47.153Z,97.30
2019-05-01T05:29:19.209Z,96.70
2019-05-01T05:31:49.065Z,96.80
2019-05-01T05:34:20.449Z,96.70
2019-05-01T05:36:52.759Z,96.20
2019-05-01T05:39:31.826Z,95.70
2019-05-01T05:42:01.990Z,96.20
2019-05-01T05:44:30.560Z,95.40
2019-05-01T05:46:59.185Z,95.20
2019-05-01T05:49:27.698Z,94.70
2019-05-01T05:51:59.778Z,94.20
2019-05-01T05:54:31.852Z,95.00
2019-05-01T05:57:05.121Z,94.70
2019-05-01T05:59:39.718Z,94.20
2019-05-01T06:02:12.935Z,93.30
2019-05-01T06:05:01.169Z,94.20
2019-05-01T06:07:50.610Z,93.60
2019-05-01T06:10:28.158Z,92.90
2019-05-01T06:13:17.897Z,93.20
2019-05-01T06:15:52.129Z,92.80
2019-05-01T06:18:22.472Z,93.00
2019-05-01T06:20:57.246Z,92.70
2019-05-01T06:23:29.618Z,91.90
2019-05-01T06:26:02.849Z,92.20
2019-05-01T06:28:31.922Z,91.50
2019-05-01T06:31:17.758Z,91.20
2019-05-01T06:33:48.385Z,91.70
2019-05-01T06:36:15.047Z,91.00
2019-05-01T06:38:44.662Z,90.10
2019-05-01T06:41:14.313Z,90.80
2019-05-01T06:43:43.881Z,90.10
2019-05-01T06:46:14.261Z,90.50
2019-05-01T06:49:02.608Z,87.20
2019-05-01T06:57:20.195Z,89.00
2019-05-01T06:59:48.989Z,90.20
2019-05-01T07:02:18.772Z,86.60
2019-05-01T07:04:49.530Z,84.60
2019-05-01T07:07:27.634Z,85.50
2019-05-01T07:09:52.930Z,85.00
2019-05-01T07:12:23.959Z,85.70
2019-05-01T07:14:55.494Z,84.90
2019-05-01T07:17:24.010Z,85.00
2019-05-01T07:20:11.985Z,84.10
2019-05-01T07:22:42.158Z,83.80
2019-05-01T07:25:11.539Z,81.30
2019-05-01T07:27:40.144Z,84.50
2019-05-01T07:30:15.859Z,79.50
2019-05-01T07:32:42.803Z,82.60
2019-05-01T07:35:11.653Z,82.10
2019-05-01T07:37:40.245Z,79.80
2019-05-01T07:40:09.028Z,81.10
2019-05-01T07:42:48.246Z,79.70
2019-05-01T07:45:20.979Z,75.60
2019-05-01T07:47:51.989Z,74.30
2019-05-01T07:50:23.867Z,74.00
2019-05-01T07:52:52.195Z,72.10
2019-05-01T07:55:37.764Z,75.70
2019-05-01T07:58:15.812Z,70.40
2019-05-01T08:00:45.649Z,70.50
2019-05-01T08:03:14.117Z,69.80
2019-05-01T08:05:45.556Z,72.70
2019-05-01T08:08:12.925Z,70.50
2019-05-01T08:10:41.517Z,69.60
2019-05-01T08:13:09.962Z,72.50
2019-05-01T08:15:38.529Z,68.30
2019-05-01T08:18:17.793Z,67.00
2019-05-01T08:20:50.380Z,65.00
2019-05-01T08:23:20.093Z,63.40
2019-05-01T08:25:48.540Z,64.70
2019-05-01T08:28:18.661Z,65.80
2019-05-01T08:30:52.735Z,62.10
2019-05-01T08:33:20.639Z,61.00
2019-05-01T08:35:49.121Z,63.80
2019-05-01T08:38:17.580Z,63.10
2019-05-01T08:40:46.061Z,64.40
2019-05-01T08:43:18.173Z,62.40
2019-05-01T08:45:49.269Z,61.90
2019-05-01T08:48:25.371Z,64.30
2019-05-01T08:50:54.524Z,64.90
2019-05-01T08:53:23.984Z,62.50
2019-05-01T08:55:52.615Z,62.50
2019-05-01T08:58:21.058Z,59.60
2019-05-01T09:00:49.517Z,58.90
2019-05-01T09:03:18.865Z,60.10
2019-05-01T09:05:52.292Z,58.90
2019-05-01T09:08:18.435Z,58.80
2019-05-01T09:10:49.471Z,60.00
2019-05-01T09:13:18.839Z,60.30
2019-05-01T09:15:48.274Z,58.20
2019-05-01T09:18:18.887Z,57.10
2019-05-01T09:20:49.209Z,56.30
2019-05-01T09:23:17.725Z,55.50
2019-05-01T09:25:54.195Z,58.80
2019-05-01T09:28:30.250Z,56.90
2019-05-01T09:31:02.166Z,59.20
2019-05-01T09:33:31.976Z,54.80
2019-05-01T09:36:00.841Z,53.60
2019-05-01T09:38:29.529Z,55.10
2019-05-01T09:40:58.065Z,58.40
2019-05-01T09:43:26.509Z,52.60
2019-05-01T09:45:55.059Z,53.80
2019-05-01T09:48:23.654Z,52.50
2019-05-01T09:50:56.403Z,53.40
2019-05-01T09:53:34.267Z,53.50
2019-05-01T09:56:07.710Z,50.90
2019-05-01T09:58:37.218Z,48.20
2019-05-01T10:01:05.866Z,51.10
2019-05-01T10:03:34.289Z,53.20
2019-05-01T10:06:02.911Z,50.20
2019-05-01T10:08:34.959Z,51.40
2019-05-01T10:11:05.082Z,46.90
2019-05-01T10:13:31.709Z,49.40
2019-05-01T10:16:01.929Z,45.40
2019-05-01T10:18:30.365Z,40.80
2019-05-01T10:20:58.838Z,40.80
2019-05-01T10:23:27.297Z,41.30
2019-05-01T10:25:57.375Z,39.40
2019-05-01T10:28:36.581Z,43.50
2019-05-01T10:31:11.818Z,40.00
2019-05-01T10:33:41.358Z,41.60
2019-05-01T10:36:19.146Z,45.10
2019-05-01T10:38:46.746Z,43.60
2019-05-01T10:41:14.918Z,43.80
2019-05-01T10:43:43.429Z,40.90
2019-05-01T10:46:11.900Z,40.00
2019-05-01T10:48:40.333Z,41.60
2019-05-01T10:51:08.802Z,39.90
2019-05-01T10:53:37.272Z,37.90
2019-05-01T10:56:05.712Z,41.40
2019-05-01T10:58:34.158Z,40.00
2019-05-01T11:01:04.284Z,40.20
2019-05-01T11:03:32.793Z,37.40
2019-05-01T11:06:01.309Z,37.00
2019-05-01T11:08:29.780Z,37.30
2019-05-01T11:10:58.221Z,38.30
2019-05-01T11:13:26.673Z,41.20
2019-05-01T11:15:55.229Z,41.80
2019-05-01T11:18:23.670Z,42.40
2019-05-01T11:20:52.113Z,41.60
2019-05-01T11:23:20.617Z,42.00
2019-05-01T11:25:49.069Z,43.30
2019-05-01T11:28:17.578Z,45.80
2019-05-01T11:30:46.304Z,42.50
2019-05-01T11:33:19.560Z,46.40
2019-05-01T11:36:09.686Z,47.60
2019-05-01T11:38:43.754Z,45.40
2019-05-01T11:41:22.509Z,47.40
2019-05-01T11:43:50.947Z,49.20
2019-05-01T11:46:19.461Z,47.10
2019-05-01T11:48:48.504Z,47.70
2019-05-01T11:51:17.059Z,47.50
2019-05-01T11:53:45.576Z,44.30
2019-05-01T11:56:14.220Z,46.60
2019-05-01T11:58:42.667Z,45.00
2019-05-01T12:01:12.761Z,41.70
2019-05-01T12:03:41.241Z,40.70
2019-05-01T12:06:22.153Z,41.80
2019-05-01T12:08:39.851Z,46.30
2019-05-01T12:11:09.695Z,38.80
2019-05-01T12:13:43.889Z,40.50
2019-05-01T12:16:12.404Z,41.70
2019-05-01T12:18:40.897Z,42.90
2019-05-01T12:21:09.567Z,42.40
2019-05-01T12:23:38.040Z,40.40
2019-05-01T12:26:06.761Z,40.90
2019-05-01T12:28:35.205Z,41.40
2019-05-01T12:31:04.120Z,40.80
2019-05-01T12:33:33.561Z,41.40
2019-05-01T12:36:03.637Z,40.20
2019-05-01T12:38:32.076Z,44.10
2019-05-01T12:41:14.150Z,41.30
2019-05-01T12:43:42.678Z,39.40
2019-05-01T12:46:12.838Z,39.00
2019-05-01T12:48:41.393Z,38.20
2019-05-01T12:51:10.205Z,37.30
2019-05-01T12:53:43.238Z,37.00
2019-05-01T12:56:16.042Z,39.60
2019-05-01T12:58:44.625Z,40.30
2019-05-01T13:01:13.145Z,37.70
2019-05-01T13:03:41.623Z,33.40
2019-05-01T13:06:10.069Z,34.90
2019-05-01T13:08:38.532Z,33.50
2019-05-01T13:11:07.100Z,33.00
2019-05-01T13:13:35.542Z,35.20
2019-05-01T13:16:04.116Z,33.10
2019-05-01T13:18:32.607Z,31.30
2019-05-01T13:21:01.042Z,31.70
2019-05-01T13:23:29.622Z,32.70
2019-05-01T13:25:59.740Z,34.90
2019-05-01T13:28:45.146Z,34.10
2019-05-01T13:31:21.610Z,36.00
2019-05-01T13:33:50.398Z,34.10
2019-05-01T13:36:18.913Z,32.80
2019-05-01T13:38:47.465Z,32.60
2019-05-01T13:41:15.936Z,32.80
2019-05-01T13:43:44.512Z,32.30
2019-05-01T13:46:13.062Z,34.10
2019-05-01T13:48:41.574Z,31.30
2019-05-01T13:51:10.094Z,32.80
2019-05-01T13:53:38.563Z,34.30
2019-05-01T13:56:07.249Z,36.20
2019-05-01T13:58:35.773Z,39.30
2019-05-01T14:01:04.514Z,41.00
2019-05-01T14:03:33.030Z,39.40
2019-05-01T14:06:01.482Z,40.00
2019-05-01T14:08:29.945Z,39.40
2019-05-01T14:10:58.393Z,39.10
2019-05-01T14:13:26.837Z,40.60
2019-05-01T14:15:55.322Z,40.20
2019-05-01T14:18:23.766Z,40.30
2019-05-01T14:21:02.866Z,40.20
2019-05-01T14:23:38.909Z,39.90
2019-05-01T14:26:08.315Z,36.50
2019-05-01T14:28:36.140Z,39.10
2019-05-01T14:31:06.132Z,40.50
2019-05-01T14:33:34.608Z,41.30
2019-05-01T14:36:04.763Z,38.30
2019-05-01T14:38:33.203Z,37.80
2019-05-01T14:41:01.761Z,40.00
2019-05-01T14:43:30.286Z,38.00
2019-05-01T14:45:58.793Z,40.20
2019-05-01T14:48:27.278Z,37.60
2019-05-01T14:50:55.799Z,35.90
2019-05-01T14:53:24.243Z,36.10
2019-05-01T14:55:52.724Z,35.00
2019-05-01T14:58:21.244Z,33.80
2019-05-01T15:00:49.776Z,35.00
2019-05-01T15:03:18.242Z,38.00
2019-05-01T15:05:46.766Z,35.50
2019-05-01T15:08:15.232Z,36.80
2019-05-01T15:10:43.726Z,36.70
2019-05-01T15:13:26.008Z,34.20
2019-05-01T15:15:56.440Z,33.90
2019-05-01T15:18:43.088Z,35.90
2019-05-01T15:21:11.629Z,36.20
2019-05-01T15:23:52.883Z,36.40
2019-05-01T15:26:10.383Z,36.60
2019-05-01T15:28:38.863Z,35.40
2019-05-01T15:31:07.479Z,34.70
2019-05-01T15:33:35.991Z,34.60
2019-05-01T15:36:04.794Z,35.10
2019-05-01T15:38:33.449Z,34.90
2019-05-01T15:41:12.396Z,36.00
2019-05-01T15:43:42.551Z,35.00
2019-05-01T15:46:10.995Z,35.80
2019-05-01T15:48:39.493Z,35.70
2019-05-01T15:51:07.989Z,37.20
2019-05-01T15:53:36.429Z,37.10
2019-05-01T15:56:04.918Z,37.60
2019-05-01T15:58:33.508Z,39.40
2019-05-01T16:01:01.945Z,41.90
2019-05-01T16:03:30.416Z,41.50
2019-05-01T16:05:58.932Z,40.40
2019-05-01T16:08:27.369Z,39.60
2019-05-01T16:11:00.218Z,40.10
2019-05-01T16:13:28.656Z,42.50
2019-05-01T16:15:57.101Z,41.90
2019-05-01T16:18:25.620Z,43.50
2019-05-01T16:20:54.129Z,42.80
2019-05-01T16:23:22.567Z,44.20
2019-05-01T16:25:51.064Z,43.40
2019-05-01T16:28:19.740Z,41.60
2019-05-01T16:30:48.257Z,44.10
2019-05-01T16:33:16.725Z,45.10
2019-05-01T16:35:45.166Z,45.40
2019-05-01T16:38:23.165Z,44.40
2019-05-01T16:40:53.641Z,45.00
2019-05-01T16:43:22.084Z,47.10
2019-05-01T16:45:50.551Z,48.00
2019-05-01T16:48:19.022Z,48.70
2019-05-01T16:50:47.532Z,48.80
2019-05-01T16:53:16.130Z,52.30
2019-05-01T16:55:44.781Z,51.90
2019-05-01T16:58:14.956Z,50.60
2019-05-01T17:01:02.388Z,51.30
2019-05-01T17:03:32.681Z,53.70
2019-05-01T17:06:11.875Z,53.40
2019-05-01T17:08:41.964Z,53.50
2019-05-01T17:11:12.177Z,54.50
2019-05-01T17:13:40.782Z,54.50
2019-05-01T17:16:09.405Z,55.10
2019-05-01T17:18:37.861Z,56.80
2019-05-01T17:21:06.356Z,57.30
2019-05-01T17:23:34.833Z,56.80
2019-05-01T17:26:03.278Z,57.90
2019-05-01T17:28:34.524Z,57.80
2019-05-01T17:31:03.036Z,58.30
2019-05-01T17:33:31.554Z,58.90
2019-05-01T17:36:00.229Z,60.50
2019-05-01T17:38:28.684Z,60.30
2019-05-01T17:40:57.204Z,61.60
2019-05-01T17:43:25.787Z,62.90
2019-05-01T17:45:54.246Z,65.60
2019-05-01T17:48:23.370Z,66.50
2019-05-01T17:50:54.924Z,67.80
2019-05-01T17:53:22.105Z,69.60
2019-05-01T17:55:50.684Z,70.10
2019-05-01T17:58:19.164Z,71.70
2019-05-01T18:00:49.538Z,74.40
2019-05-01T18:03:28.686Z,78.70
2019-05-01T18:06:05.028Z,80.40
2019-05-01T18:08:33.585Z,83.60
2019-05-01T18:11:02.047Z,84.90
2019-05-01T18:13:31.122Z,86.40
2019-05-01T18:15:59.619Z,87.60
2019-05-01T18:18:28.298Z,88.50
2019-05-01T18:20:56.960Z,90.80
2019-05-01T18:23:47.593Z,91.50
2019-05-01T18:26:31.532Z,92.40
2019-05-01T18:29:05.839Z,93.20
2019-05-01T18:31:34.788Z,93.30
2019-05-01T18:34:04.509Z,93.70
2019-05-01T18:36:37.593Z,93.70
2019-05-01T18:39:16.813Z,93.90
2019-05-01T18:41:50.298Z,93.70
2019-05-01T18:44:20.121Z,93.90
2019-05-01T18:46:48.641Z,94.40
2019-05-01T18:49:17.269Z,95.00
2019-05-01T18:51:45.864Z,95.30
2019-05-01T18:54:14.389Z,95.70
2019-05-01T18:56:42.890Z,96.90
2019-05-01T18:59:11.419Z,97.10
2019-05-01T19:01:43.951Z,98.80
2019-05-01T19:04:10.241Z,99.10
2019-05-01T19:06:41.366Z,99.90
2019-05-01T19:09:15.123Z,99.90
2019-05-01T19:11:39.822Z,99.90
2019-05-01T19:14:08.719Z,99.90
2019-05-01T19:16:39.909Z,99.90
2019-05-01T19:19:07.470Z,99.90
2019-05-01T19:21:37.185Z,99.90
2019-05-01T19:24:06.088Z,99.90
2019-05-01T19:26:38.180Z,99.90
2019-05-01T19:29:05.194Z,99.90
2019-05-01T19:31:33.655Z,99.90
2019-05-01T19:34:02.287Z,99.90
2019-05-01T19:36:30.745Z,99.90
2019-05-01T19:38:59.256Z,99.90
2019-05-01T19:41:27.760Z,99.90
2019-05-01T19:43:56.274Z,99.90
2019-05-01T19:46:25.343Z,99.90
2019-05-01T19:48:53.841Z,99.90
2019-05-01T19:51:24.161Z,99.90
2019-05-01T19:53:53.563Z,99.90
2019-05-01T19:56:22.799Z,99.90
2019-05-01T19:58:51.685Z,99.90
2019-05-01T20:01:20.213Z,99.90
2019-05-01T20:03:48.759Z,99.90
2019-05-01T20:06:17.213Z,99.90
2019-05-01T20:08:45.720Z,99.90
2019-05-01T20:11:14.282Z,99.90
2019-05-01T20:13:42.808Z,99.90
2019-05-01T20:16:11.542Z,99.90
2019-05-01T20:18:40.031Z,99.90
2019-05-01T20:21:08.828Z,99.90
2019-05-01T20:23:37.297Z,99.90
2019-05-01T20:26:05.989Z,99.90
2019-05-01T20:28:34.447Z,99.90
2019-05-01T20:31:02.972Z,99.90
2019-05-01T20:33:33.436Z,99.90
2019-05-01T20:36:05.208Z,99.90
2019-05-01T20:38:31.812Z,99.90
2019-05-01T20:41:00.391Z,99.90
2019-05-01T20:43:28.834Z,99.90
2019-05-01T20:45:57.429Z,99.90
2019-05-01T20:48:26.337Z,99.90
2019-05-01T20:50:54.790Z,99.90
2019-05-01T20:53:23.237Z,99.90
2019-05-01T20:55:53.396Z,99.90
2019-05-01T20:58:22.416Z,99.90
2019-05-01T21:00:53.446Z,99.90
2019-05-01T21:03:22.801Z,99.90
2019-05-01T21:06:02.971Z,99.90
2019-05-01T21:08:42.805Z,99.90
2019-05-01T21:11:18.609Z,99.90
2019-05-01T21:13:47.114Z,99.90
2019-05-01T21:16:15.628Z,99.90
2019-05-01T21:18:44.149Z,99.90
2019-05-01T21:21:14.165Z,99.90
2019-05-01T21:23:43.466Z,99.90
2019-05-01T21:26:13.782Z,99.90
2019-05-01T21:28:44.772Z,99.90
2019-05-01T21:31:13.795Z,99.90
2019-05-01T21:33:48.972Z,99.90
2019-05-01T21:36:12.770Z,99.90
2019-05-01T21:38:41.325Z,99.90
2019-05-01T21:41:09.768Z,99.90
2019-05-01T21:43:38.312Z,99.90
2019-05-01T21:46:06.774Z,99.90
2019-05-01T21:48:35.213Z,99.90
2019-05-01T21:51:07.346Z,99.90
2019-05-01T21:53:37.254Z,99.90
2019-05-01T21:56:06.095Z,99.90
2019-05-01T21:58:35.928Z,99.90
2019-05-01T22:01:06.769Z,99.90
2019-05-01T22:03:35.282Z,99.90
2019-05-01T22:06:04.024Z,99.90
2019-05-01T22:08:34.372Z,99.90
2019-05-01T22:11:03.594Z,99.90
2019-05-01T22:13:32.273Z,99.90
2019-05-01T22:16:05.056Z,99.90
2019-05-01T22:18:37.805Z,99.90
2019-05-01T22:21:07.961Z,99.90
2019-05-01T22:23:54.548Z,99.90
2019-05-01T22:26:24.682Z,99.90
2019-05-01T22:28:56.043Z,99.90
2019-05-01T22:31:26.328Z,99.90
2019-05-01T22:33:56.438Z,99.90
2019-05-01T22:36:24.908Z,99.90
2019-05-01T22:38:53.409Z,99.90
2019-05-01T22:41:21.868Z,99.90
2019-05-01T22:43:50.377Z,99.90
2019-05-01T22:46:20.514Z,99.90
2019-05-01T22:48:48.953Z,99.90
2019-05-01T22:51:19.045Z,99.90
2019-05-01T22:53:49.447Z,99.90
2019-05-01T22:56:17.950Z,99.90
2019-05-01T22:58:46.397Z,99.90
2019-05-01T23:01:18.231Z,99.90
2019-05-01T23:03:50.707Z,99.90
2019-05-01T23:06:19.401Z,99.90
2019-05-01T23:08:47.912Z,99.90
2019-05-01T23:11:20.174Z,99.90
2019-05-01T23:13:46.900Z,99.90
2019-05-01T23:16:16.758Z,99.90
2019-05-01T23:18:47.151Z,99.90
2019-05-01T23:21:16.125Z,99.90
2019-05-01T23:23:44.771Z,99.90
2019-05-01T23:26:16.735Z,99.90
2019-05-01T23:28:43.549Z,99.90
2019-05-01T23:31:12.137Z,99.90
2019-05-01T23:33:40.584Z,99.90
2019-05-01T23:36:09.066Z,99.90
2019-05-01T23:38:37.512Z,99.90
2019-05-01T23:41:06.033Z,99.90
2019-05-01T23:43:34.540Z,99.90
2019-05-01T23:46:03.062Z,99.90
2019-05-01T23:48:31.518Z,99.90
2019-05-01T23:51:00.169Z,99.90
2019-05-01T23:53:28.689Z,99.90
2019-05-01T23:56:00.154Z,99.90
2019-05-01T23:58:27.414Z,99.90
